sensor_id;sensor_type;location;lat;lon;timestamp;P1;durP1;ratioP1;P2;durP2;ratioP2
14599;SDS011;7386;45.586;12.854;2023-01-29T00:02:00;18.57;;;12.17;;
14599;SDS011;7386;45.586;12.854;2023-01-29T00:04:30;20.93;;;11.77;;
14599;SDS011;7386;45.586;12.854;2023-01-29T00:06:58;20.03;;;12.30;;
14599;SDS011;7386;45.586;12.854;2023-01-29T00:09:27;20.33;;;12.10;;
14599;SDS011;7386;45.586;12.854;2023-01-29T00:11:56;21.23;;;13.17;;
14599;SDS011;7386;45.586;12.854;2023-01-29T00:14:25;20.10;;;12.70;;
14599;SDS011;7386;45.586;12.854;2023-01-29T00:16:54;24.70;;;13.50;;
14599;SDS011;7386;45.586;12.854;2023-01-29T00:19:24;23.40;;;13.40;;
14599;SDS011;7386;45.586;12.854;2023-01-29T00:21:52;22.73;;;14.27;;
14599;SDS011;7386;45.586;12.854;2023-01-29T00:24:21;24.57;;;14.23;;
14599;SDS011;7386;45.586;12.854;2023-01-29T00:26:49;27.33;;;14.70;;
14599;SDS011;7386;45.586;12.854;2023-01-29T00:29:18;21.53;;;14.33;;
14599;SDS011;7386;45.586;12.854;2023-01-29T00:31:47;26.53;;;16.03;;
14599;SDS011;7386;45.586;12.854;2023-01-29T00:34:16;22.97;;;15.20;;
14599;SDS011;7386;45.586;12.854;2023-01-29T00:36:45;27.80;;;17.47;;
14599;SDS011;7386;45.586;12.854;2023-01-29T00:39:14;26.07;;;15.77;;
14599;SDS011;7386;45.586;12.854;2023-01-29T00:41:42;28.07;;;16.63;;
14599;SDS011;7386;45.586;12.854;2023-01-29T00:44:28;26.33;;;15.67;;
14599;SDS011;7386;45.586;12.854;2023-01-29T00:47:14;29.23;;;16.20;;
14599;SDS011;7386;45.586;12.854;2023-01-29T00:49:59;28.87;;;17.10;;
14599;SDS011;7386;45.586;12.854;2023-01-29T00:52:29;27.37;;;16.37;;
14599;SDS011;7386;45.586;12.854;2023-01-29T00:54:58;31.70;;;16.83;;
14599;SDS011;7386;45.586;12.854;2023-01-29T00:57:27;27.93;;;16.93;;
14599;SDS011;7386;45.586;12.854;2023-01-29T00:59:56;29.97;;;17.33;;
14599;SDS011;7386;45.586;12.854;2023-01-29T01:02:25;28.30;;;17.40;;
14599;SDS011;7386;45.586;12.854;2023-01-29T01:05:12;26.37;;;15.97;;
14599;SDS011;7386;45.586;12.854;2023-01-29T01:07:44;26.40;;;16.07;;
14599;SDS011;7386;45.586;12.854;2023-01-29T01:10:14;27.77;;;16.43;;
14599;SDS011;7386;45.586;12.854;2023-01-29T01:12:49;28.23;;;17.10;;
14599;SDS011;7386;45.586;12.854;2023-01-29T01:15:19;28.90;;;16.63;;
14599;SDS011;7386;45.586;12.854;2023-01-29T01:17:50;27.87;;;16.50;;
14599;SDS011;7386;45.586;12.854;2023-01-29T01:20:18;26.80;;;15.90;;
14599;SDS011;7386;45.586;12.854;2023-01-29T01:22:48;26.83;;;16.90;;
14599;SDS011;7386;45.586;12.854;2023-01-29T01:25:17;30.83;;;17.37;;
14599;SDS011;7386;45.586;12.854;2023-01-29T01:27:45;29.10;;;17.23;;
14599;SDS011;7386;45.586;12.854;2023-01-29T01:30:14;28.00;;;16.90;;
14599;SDS011;7386;45.586;12.854;2023-01-29T01:32:43;31.47;;;17.43;;
14599;SDS011;7386;45.586;12.854;2023-01-29T01:35:12;29.07;;;16.47;;
14599;SDS011;7386;45.586;12.854;2023-01-29T01:37:41;27.60;;;16.37;;
14599;SDS011;7386;45.586;12.854;2023-01-29T01:40:12;28.73;;;15.67;;
14599;SDS011;7386;45.586;12.854;2023-01-29T01:42:43;27.33;;;16.47;;
14599;SDS011;7386;45.586;12.854;2023-01-29T01:45:17;29.50;;;17.53;;
14599;SDS011;7386;45.586;12.854;2023-01-29T01:47:47;29.67;;;16.47;;
14599;SDS011;7386;45.586;12.854;2023-01-29T01:50:17;27.93;;;16.37;;
14599;SDS011;7386;45.586;12.854;2023-01-29T01:52:47;29.10;;;17.17;;
14599;SDS011;7386;45.586;12.854;2023-01-29T01:55:18;26.90;;;16.30;;
14599;SDS011;7386;45.586;12.854;2023-01-29T01:57:49;29.77;;;17.23;;
14599;SDS011;7386;45.586;12.854;2023-01-29T02:00:19;24.93;;;16.10;;
14599;SDS011;7386;45.586;12.854;2023-01-29T02:02:48;28.13;;;16.73;;
14599;SDS011;7386;45.586;12.854;2023-01-29T02:05:34;29.40;;;16.37;;
14599;SDS011;7386;45.586;12.854;2023-01-29T02:08:22;28.20;;;15.93;;
14599;SDS011;7386;45.586;12.854;2023-01-29T02:11:11;28.97;;;17.07;;
14599;SDS011;7386;45.586;12.854;2023-01-29T02:13:41;30.37;;;16.70;;
14599;SDS011;7386;45.586;12.854;2023-01-29T02:16:10;28.30;;;16.77;;
14599;SDS011;7386;45.586;12.854;2023-01-29T02:18:38;27.30;;;15.87;;
14599;SDS011;7386;45.586;12.854;2023-01-29T02:21:13;27.70;;;16.47;;
14599;SDS011;7386;45.586;12.854;2023-01-29T02:24:03;28.97;;;16.67;;
14599;SDS011;7386;45.586;12.854;2023-01-29T02:26:41;29.00;;;17.37;;
14599;SDS011;7386;45.586;12.854;2023-01-29T02:29:17;28.97;;;17.40;;
14599;SDS011;7386;45.586;12.854;2023-01-29T02:31:55;29.63;;;17.20;;
14599;SDS011;7386;45.586;12.854;2023-01-29T02:34:27;30.40;;;18.23;;
14599;SDS011;7386;45.586;12.854;2023-01-29T02:36:58;30.40;;;17.97;;
14599;SDS011;7386;45.586;12.854;2023-01-29T02:39:32;31.07;;;17.17;;
14599;SDS011;7386;45.586;12.854;2023-01-29T02:42:06;27.67;;;17.50;;
14599;SDS011;7386;45.586;12.854;2023-01-29T02:44:40;29.00;;;16.53;;
14599;SDS011;7386;45.586;12.854;2023-01-29T02:47:11;29.83;;;18.13;;
14599;SDS011;7386;45.586;12.854;2023-01-29T02:49:44;26.83;;;16.50;;
14599;SDS011;7386;45.586;12.854;2023-01-29T02:52:15;27.83;;;17.37;;
14599;SDS011;7386;45.586;12.854;2023-01-29T02:54:45;28.63;;;17.33;;
14599;SDS011;7386;45.586;12.854;2023-01-29T02:57:17;29.33;;;17.43;;
14599;SDS011;7386;45.586;12.854;2023-01-29T02:59:53;28.30;;;16.90;;
14599;SDS011;7386;45.586;12.854;2023-01-29T03:02:22;28.63;;;17.43;;
14599;SDS011;7386;45.586;12.854;2023-01-29T03:04:54;27.97;;;17.50;;
14599;SDS011;7386;45.586;12.854;2023-01-29T03:07:26;29.47;;;17.47;;
14599;SDS011;7386;45.586;12.854;2023-01-29T03:10:11;30.80;;;17.63;;
14599;SDS011;7386;45.586;12.854;2023-01-29T03:12:44;30.50;;;17.77;;
14599;SDS011;7386;45.586;12.854;2023-01-29T03:15:16;31.07;;;17.63;;
14599;SDS011;7386;45.586;12.854;2023-01-29T03:17:51;28.27;;;18.17;;
14599;SDS011;7386;45.586;12.854;2023-01-29T03:20:22;30.87;;;18.67;;
14599;SDS011;7386;45.586;12.854;2023-01-29T03:22:56;34.80;;;19.47;;
14599;SDS011;7386;45.586;12.854;2023-01-29T03:25:26;30.33;;;17.70;;
14599;SDS011;7386;45.586;12.854;2023-01-29T03:28:14;28.43;;;18.70;;
14599;SDS011;7386;45.586;12.854;2023-01-29T03:31:03;28.70;;;17.53;;
14599;SDS011;7386;45.586;12.854;2023-01-29T03:33:50;29.83;;;18.03;;
14599;SDS011;7386;45.586;12.854;2023-01-29T03:36:22;29.40;;;17.87;;
14599;SDS011;7386;45.586;12.854;2023-01-29T03:38:52;30.27;;;18.20;;
14599;SDS011;7386;45.586;12.854;2023-01-29T03:41:22;31.07;;;18.33;;
14599;SDS011;7386;45.586;12.854;2023-01-29T03:43:51;31.77;;;18.37;;
14599;SDS011;7386;45.586;12.854;2023-01-29T03:46:26;28.13;;;16.97;;
14599;SDS011;7386;45.586;12.854;2023-01-29T03:48:56;27.83;;;16.97;;
14599;SDS011;7386;45.586;12.854;2023-01-29T03:51:27;31.30;;;18.37;;
14599;SDS011;7386;45.586;12.854;2023-01-29T03:53:59;27.43;;;17.03;;
14599;SDS011;7386;45.586;12.854;2023-01-29T03:56:36;29.83;;;16.97;;
14599;SDS011;7386;45.586;12.854;2023-01-29T03:59:10;26.80;;;16.80;;
14599;SDS011;7386;45.586;12.854;2023-01-29T04:01:41;30.20;;;16.93;;
14599;SDS011;7386;45.586;12.854;2023-01-29T04:04:14;27.83;;;17.03;;
14599;SDS011;7386;45.586;12.854;2023-01-29T04:06:44;32.63;;;17.90;;
14599;SDS011;7386;45.586;12.854;2023-01-29T04:09:15;30.87;;;16.07;;
14599;SDS011;7386;45.586;12.854;2023-01-29T04:11:48;26.30;;;16.53;;
14599;SDS011;7386;45.586;12.854;2023-01-29T04:14:17;25.97;;;17.17;;
14599;SDS011;7386;45.586;12.854;2023-01-29T04:16:48;24.43;;;15.27;;
14599;SDS011;7386;45.586;12.854;2023-01-29T04:19:18;25.67;;;15.17;;
14599;SDS011;7386;45.586;12.854;2023-01-29T04:21:46;24.80;;;15.80;;
14599;SDS011;7386;45.586;12.854;2023-01-29T04:24:16;29.27;;;16.37;;
14599;SDS011;7386;45.586;12.854;2023-01-29T04:26:54;30.40;;;16.87;;
14599;SDS011;7386;45.586;12.854;2023-01-29T04:29:28;30.60;;;17.33;;
14599;SDS011;7386;45.586;12.854;2023-01-29T04:32:03;27.73;;;16.67;;
14599;SDS011;7386;45.586;12.854;2023-01-29T04:34:34;33.27;;;18.60;;
14599;SDS011;7386;45.586;12.854;2023-01-29T04:37:09;30.23;;;18.13;;
14599;SDS011;7386;45.586;12.854;2023-01-29T04:39:42;31.83;;;19.13;;
14599;SDS011;7386;45.586;12.854;2023-01-29T04:42:14;32.40;;;19.20;;
14599;SDS011;7386;45.586;12.854;2023-01-29T04:44:46;31.10;;;18.93;;
14599;SDS011;7386;45.586;12.854;2023-01-29T04:47:20;31.23;;;18.67;;
14599;SDS011;7386;45.586;12.854;2023-01-29T04:49:55;28.97;;;18.77;;
14599;SDS011;7386;45.586;12.854;2023-01-29T04:52:29;30.03;;;18.63;;
14599;SDS011;7386;45.586;12.854;2023-01-29T04:55:00;37.93;;;20.63;;
14599;SDS011;7386;45.586;12.854;2023-01-29T04:57:33;34.53;;;20.33;;
14599;SDS011;7386;45.586;12.854;2023-01-29T05:00:04;34.70;;;20.37;;
14599;SDS011;7386;45.586;12.854;2023-01-29T05:02:36;36.00;;;21.30;;
14599;SDS011;7386;45.586;12.854;2023-01-29T05:05:06;40.93;;;23.53;;
14599;SDS011;7386;45.586;12.854;2023-01-29T05:07:36;35.40;;;20.57;;
14599;SDS011;7386;45.586;12.854;2023-01-29T05:10:06;38.20;;;21.30;;
14599;SDS011;7386;45.586;12.854;2023-01-29T05:12:35;36.17;;;20.50;;
14599;SDS011;7386;45.586;12.854;2023-01-29T05:15:07;36.20;;;22.50;;
14599;SDS011;7386;45.586;12.854;2023-01-29T05:17:37;33.80;;;20.47;;
14599;SDS011;7386;45.586;12.854;2023-01-29T05:20:06;32.30;;;19.37;;
14599;SDS011;7386;45.586;12.854;2023-01-29T05:22:35;38.43;;;22.70;;
14599;SDS011;7386;45.586;12.854;2023-01-29T05:25:05;34.87;;;20.87;;
14599;SDS011;7386;45.586;12.854;2023-01-29T05:27:37;32.17;;;20.03;;
14599;SDS011;7386;45.586;12.854;2023-01-29T05:30:23;33.20;;;19.30;;
14599;SDS011;7386;45.586;12.854;2023-01-29T05:32:54;33.17;;;20.43;;
14599;SDS011;7386;45.586;12.854;2023-01-29T05:35:22;34.80;;;21.17;;
14599;SDS011;7386;45.586;12.854;2023-01-29T05:37:50;34.70;;;20.23;;
14599;SDS011;7386;45.586;12.854;2023-01-29T05:40:19;34.27;;;21.10;;
14599;SDS011;7386;45.586;12.854;2023-01-29T05:42:47;33.17;;;19.97;;
14599;SDS011;7386;45.586;12.854;2023-01-29T05:45:16;32.40;;;19.43;;
14599;SDS011;7386;45.586;12.854;2023-01-29T05:47:45;36.63;;;20.50;;
14599;SDS011;7386;45.586;12.854;2023-01-29T05:50:15;32.97;;;20.30;;
14599;SDS011;7386;45.586;12.854;2023-01-29T05:52:44;33.40;;;20.67;;
14599;SDS011;7386;45.586;12.854;2023-01-29T05:55:12;32.27;;;19.33;;
14599;SDS011;7386;45.586;12.854;2023-01-29T05:57:41;36.00;;;19.90;;
14599;SDS011;7386;45.586;12.854;2023-01-29T06:00:10;31.67;;;19.37;;
14599;SDS011;7386;45.586;12.854;2023-01-29T06:02:39;33.63;;;19.87;;
14599;SDS011;7386;45.586;12.854;2023-01-29T06:05:07;33.07;;;19.27;;
14599;SDS011;7386;45.586;12.854;2023-01-29T06:07:38;31.13;;;19.10;;
14599;SDS011;7386;45.586;12.854;2023-01-29T06:10:10;31.07;;;19.07;;
14599;SDS011;7386;45.586;12.854;2023-01-29T06:12:42;31.23;;;18.57;;
14599;SDS011;7386;45.586;12.854;2023-01-29T06:15:11;30.43;;;18.33;;
14599;SDS011;7386;45.586;12.854;2023-01-29T06:17:41;30.60;;;17.73;;
14599;SDS011;7386;45.586;12.854;2023-01-29T06:20:09;31.60;;;19.73;;
14599;SDS011;7386;45.586;12.854;2023-01-29T06:22:39;29.30;;;17.43;;
14599;SDS011;7386;45.586;12.854;2023-01-29T06:25:08;30.57;;;18.60;;
14599;SDS011;7386;45.586;12.854;2023-01-29T06:27:36;28.30;;;17.20;;
14599;SDS011;7386;45.586;12.854;2023-01-29T06:30:05;32.63;;;19.10;;
14599;SDS011;7386;45.586;12.854;2023-01-29T06:32:34;29.80;;;17.67;;
14599;SDS011;7386;45.586;12.854;2023-01-29T06:35:03;28.03;;;17.00;;
14599;SDS011;7386;45.586;12.854;2023-01-29T06:37:31;29.03;;;16.13;;
14599;SDS011;7386;45.586;12.854;2023-01-29T06:40:01;25.27;;;15.57;;
14599;SDS011;7386;45.586;12.854;2023-01-29T06:42:30;24.33;;;15.03;;
14599;SDS011;7386;45.586;12.854;2023-01-29T06:44:58;26.97;;;16.03;;
14599;SDS011;7386;45.586;12.854;2023-01-29T06:47:27;25.17;;;15.27;;
14599;SDS011;7386;45.586;12.854;2023-01-29T06:49:55;25.03;;;15.00;;
14599;SDS011;7386;45.586;12.854;2023-01-29T06:52:23;26.47;;;16.30;;
14599;SDS011;7386;45.586;12.854;2023-01-29T06:54:54;22.80;;;15.07;;
14599;SDS011;7386;45.586;12.854;2023-01-29T06:57:24;24.30;;;14.60;;
14599;SDS011;7386;45.586;12.854;2023-01-29T06:59:55;21.60;;;14.03;;
14599;SDS011;7386;45.586;12.854;2023-01-29T07:02:23;22.27;;;14.87;;
14599;SDS011;7386;45.586;12.854;2023-01-29T07:04:52;24.83;;;16.57;;
14599;SDS011;7386;45.586;12.854;2023-01-29T07:07:20;24.43;;;16.47;;
14599;SDS011;7386;45.586;12.854;2023-01-29T07:09:49;32.97;;;19.20;;
14599;SDS011;7386;45.586;12.854;2023-01-29T07:12:17;34.10;;;19.60;;
14599;SDS011;7386;45.586;12.854;2023-01-29T07:14:47;36.70;;;20.60;;
14599;SDS011;7386;45.586;12.854;2023-01-29T07:17:16;34.20;;;19.70;;
14599;SDS011;7386;45.586;12.854;2023-01-29T07:19:45;32.60;;;19.63;;
14599;SDS011;7386;45.586;12.854;2023-01-29T07:22:14;36.17;;;20.73;;
14599;SDS011;7386;45.586;12.854;2023-01-29T07:24:42;30.70;;;19.33;;
14599;SDS011;7386;45.586;12.854;2023-01-29T07:27:11;35.03;;;19.80;;
14599;SDS011;7386;45.586;12.854;2023-01-29T07:29:39;35.13;;;20.20;;
14599;SDS011;7386;45.586;12.854;2023-01-29T07:32:09;35.00;;;18.97;;
14599;SDS011;7386;45.586;12.854;2023-01-29T07:34:37;31.63;;;19.30;;
14599;SDS011;7386;45.586;12.854;2023-01-29T07:37:06;33.83;;;19.57;;
14599;SDS011;7386;45.586;12.854;2023-01-29T07:39:34;38.07;;;20.33;;
14599;SDS011;7386;45.586;12.854;2023-01-29T07:42:03;35.27;;;19.77;;
14599;SDS011;7386;45.586;12.854;2023-01-29T07:44:31;32.17;;;19.63;;
14599;SDS011;7386;45.586;12.854;2023-01-29T07:47:00;31.20;;;19.20;;
14599;SDS011;7386;45.586;12.854;2023-01-29T07:49:30;27.63;;;16.80;;
14599;SDS011;7386;45.586;12.854;2023-01-29T07:51:58;31.83;;;19.17;;
14599;SDS011;7386;45.586;12.854;2023-01-29T07:54:26;29.40;;;18.70;;
14599;SDS011;7386;45.586;12.854;2023-01-29T07:56:55;30.90;;;20.00;;
14599;SDS011;7386;45.586;12.854;2023-01-29T07:59:23;31.90;;;19.33;;
14599;SDS011;7386;45.586;12.854;2023-01-29T08:01:52;31.30;;;18.20;;
14599;SDS011;7386;45.586;12.854;2023-01-29T08:04:20;30.03;;;18.70;;
14599;SDS011;7386;45.586;12.854;2023-01-29T08:06:50;30.03;;;18.53;;
14599;SDS011;7386;45.586;12.854;2023-01-29T08:09:18;31.20;;;17.63;;
14599;SDS011;7386;45.586;12.854;2023-01-29T08:11:47;33.20;;;18.03;;
14599;SDS011;7386;45.586;12.854;2023-01-29T08:14:15;31.47;;;18.43;;
14599;SDS011;7386;45.586;12.854;2023-01-29T08:16:44;32.63;;;18.47;;
14599;SDS011;7386;45.586;12.854;2023-01-29T08:19:12;32.07;;;18.63;;
14599;SDS011;7386;45.586;12.854;2023-01-29T08:21:42;34.17;;;18.60;;
14599;SDS011;7386;45.586;12.854;2023-01-29T08:24:11;28.80;;;17.30;;
14599;SDS011;7386;45.586;12.854;2023-01-29T08:26:40;28.97;;;17.47;;
14599;SDS011;7386;45.586;12.854;2023-01-29T08:29:09;28.70;;;16.83;;
14599;SDS011;7386;45.586;12.854;2023-01-29T08:31:37;27.20;;;17.47;;
14599;SDS011;7386;45.586;12.854;2023-01-29T08:34:06;28.43;;;16.93;;
14599;SDS011;7386;45.586;12.854;2023-01-29T08:36:34;27.83;;;16.77;;
14599;SDS011;7386;45.586;12.854;2023-01-29T08:39:03;25.13;;;15.77;;
14599;SDS011;7386;45.586;12.854;2023-01-29T08:41:33;22.97;;;14.23;;
14599;SDS011;7386;45.586;12.854;2023-01-29T08:44:01;23.70;;;14.63;;
14599;SDS011;7386;45.586;12.854;2023-01-29T08:46:30;22.40;;;13.70;;
14599;SDS011;7386;45.586;12.854;2023-01-29T08:48:58;22.47;;;13.67;;
14599;SDS011;7386;45.586;12.854;2023-01-29T08:51:27;22.23;;;14.13;;
14599;SDS011;7386;45.586;12.854;2023-01-29T08:53:55;19.63;;;12.30;;
14599;SDS011;7386;45.586;12.854;2023-01-29T08:56:24;22.83;;;13.43;;
14599;SDS011;7386;45.586;12.854;2023-01-29T08:58:54;23.43;;;14.27;;
14599;SDS011;7386;45.586;12.854;2023-01-29T09:01:24;23.07;;;13.17;;
14599;SDS011;7386;45.586;12.854;2023-01-29T09:03:52;22.13;;;12.87;;
14599;SDS011;7386;45.586;12.854;2023-01-29T09:06:21;23.53;;;13.60;;
14599;SDS011;7386;45.586;12.854;2023-01-29T09:08:49;22.87;;;13.70;;
14599;SDS011;7386;45.586;12.854;2023-01-29T09:11:18;23.93;;;13.90;;
14599;SDS011;7386;45.586;12.854;2023-01-29T09:13:46;19.13;;;12.63;;
14599;SDS011;7386;45.586;12.854;2023-01-29T09:16:16;19.93;;;12.30;;
14599;SDS011;7386;45.586;12.854;2023-01-29T09:18:45;24.23;;;14.03;;
14599;SDS011;7386;45.586;12.854;2023-01-29T09:21:13;23.23;;;14.13;;
14599;SDS011;7386;45.586;12.854;2023-01-29T09:23:42;24.20;;;14.50;;
14599;SDS011;7386;45.586;12.854;2023-01-29T09:26:10;24.43;;;15.07;;
14599;SDS011;7386;45.586;12.854;2023-01-29T09:28:39;22.50;;;13.90;;
14599;SDS011;7386;45.586;12.854;2023-01-29T09:31:07;25.07;;;14.37;;
14599;SDS011;7386;45.586;12.854;2023-01-29T09:33:37;22.90;;;14.27;;
14599;SDS011;7386;45.586;12.854;2023-01-29T09:36:06;22.07;;;13.57;;
14599;SDS011;7386;45.586;12.854;2023-01-29T09:38:34;20.80;;;12.93;;
14599;SDS011;7386;45.586;12.854;2023-01-29T09:41:05;20.87;;;14.03;;
14599;SDS011;7386;45.586;12.854;2023-01-29T09:43:39;21.93;;;12.70;;
14599;SDS011;7386;45.586;12.854;2023-01-29T09:46:11;21.43;;;12.83;;
14599;SDS011;7386;45.586;12.854;2023-01-29T09:48:44;21.93;;;13.30;;
14599;SDS011;7386;45.586;12.854;2023-01-29T09:51:14;20.07;;;12.43;;
14599;SDS011;7386;45.586;12.854;2023-01-29T09:53:50;21.33;;;12.43;;
14599;SDS011;7386;45.586;12.854;2023-01-29T09:56:21;18.97;;;11.63;;
14599;SDS011;7386;45.586;12.854;2023-01-29T09:58:55;19.73;;;12.17;;
14599;SDS011;7386;45.586;12.854;2023-01-29T10:01:28;19.77;;;11.87;;
14599;SDS011;7386;45.586;12.854;2023-01-29T10:04:05;16.93;;;10.63;;
14599;SDS011;7386;45.586;12.854;2023-01-29T10:06:42;16.53;;;10.50;;
14599;SDS011;7386;45.586;12.854;2023-01-29T10:12:02;19.70;;;11.97;;
14599;SDS011;7386;45.586;12.854;2023-01-29T10:14:36;23.63;;;12.00;;
14599;SDS011;7386;45.586;12.854;2023-01-29T10:17:22;19.20;;;11.57;;
14599;SDS011;7386;45.586;12.854;2023-01-29T10:19:57;23.17;;;14.23;;
14599;SDS011;7386;45.586;12.854;2023-01-29T10:22:40;24.27;;;13.07;;
14599;SDS011;7386;45.586;12.854;2023-01-29T10:25:10;18.53;;;11.50;;
14599;SDS011;7386;45.586;12.854;2023-01-29T10:27:42;18.93;;;11.57;;
14599;SDS011;7386;45.586;12.854;2023-01-29T10:30:19;18.53;;;11.53;;
14599;SDS011;7386;45.586;12.854;2023-01-29T10:32:48;18.03;;;11.30;;
14599;SDS011;7386;45.586;12.854;2023-01-29T10:35:19;20.30;;;12.57;;
14599;SDS011;7386;45.586;12.854;2023-01-29T10:37:50;17.17;;;11.20;;
14599;SDS011;7386;45.586;12.854;2023-01-29T10:40:19;17.67;;;10.67;;
14599;SDS011;7386;45.586;12.854;2023-01-29T10:42:49;19.03;;;11.90;;
14599;SDS011;7386;45.586;12.854;2023-01-29T10:45:22;17.23;;;11.43;;
14599;SDS011;7386;45.586;12.854;2023-01-29T10:48:17;18.87;;;12.07;;
14599;SDS011;7386;45.586;12.854;2023-01-29T10:50:51;20.77;;;12.70;;
14599;SDS011;7386;45.586;12.854;2023-01-29T10:53:41;19.77;;;12.47;;
14599;SDS011;7386;45.586;12.854;2023-01-29T10:56:20;22.03;;;13.30;;
14599;SDS011;7386;45.586;12.854;2023-01-29T10:58:52;19.53;;;12.93;;
14599;SDS011;7386;45.586;12.854;2023-01-29T11:01:22;21.33;;;13.10;;
14599;SDS011;7386;45.586;12.854;2023-01-29T11:03:55;19.80;;;12.73;;
14599;SDS011;7386;45.586;12.854;2023-01-29T11:06:27;19.57;;;11.83;;
14599;SDS011;7386;45.586;12.854;2023-01-29T11:08:58;16.13;;;10.90;;
14599;SDS011;7386;45.586;12.854;2023-01-29T11:11:30;17.70;;;11.17;;
14599;SDS011;7386;45.586;12.854;2023-01-29T11:14:01;16.73;;;10.70;;
14599;SDS011;7386;45.586;12.854;2023-01-29T11:16:39;16.23;;;10.13;;
14599;SDS011;7386;45.586;12.854;2023-01-29T11:19:08;16.23;;;9.97;;
14599;SDS011;7386;45.586;12.854;2023-01-29T11:21:50;17.57;;;11.57;;
14599;SDS011;7386;45.586;12.854;2023-01-29T11:24:19;20.40;;;12.83;;
14599;SDS011;7386;45.586;12.854;2023-01-29T11:26:48;19.80;;;11.90;;
14599;SDS011;7386;45.586;12.854;2023-01-29T11:32:10;20.93;;;11.13;;
14599;SDS011;7386;45.586;12.854;2023-01-29T11:34:56;22.80;;;12.83;;
14599;SDS011;7386;45.586;12.854;2023-01-29T11:37:32;18.87;;;11.73;;
14599;SDS011;7386;45.586;12.854;2023-01-29T11:40:01;19.77;;;12.57;;
14599;SDS011;7386;45.586;12.854;2023-01-29T11:42:30;17.30;;;11.33;;
14599;SDS011;7386;45.586;12.854;2023-01-29T11:45:00;16.83;;;11.07;;
14599;SDS011;7386;45.586;12.854;2023-01-29T11:47:28;18.63;;;12.00;;
14599;SDS011;7386;45.586;12.854;2023-01-29T11:49:58;19.23;;;11.87;;
14599;SDS011;7386;45.586;12.854;2023-01-29T11:52:34;20.20;;;11.67;;
14599;SDS011;7386;45.586;12.854;2023-01-29T11:55:04;22.00;;;13.37;;
14599;SDS011;7386;45.586;12.854;2023-01-29T11:57:34;18.93;;;11.73;;
14599;SDS011;7386;45.586;12.854;2023-01-29T12:00:04;21.43;;;13.17;;
14599;SDS011;7386;45.586;12.854;2023-01-29T12:02:35;18.63;;;11.50;;
14599;SDS011;7386;45.586;12.854;2023-01-29T12:05:05;19.50;;;12.00;;
14599;SDS011;7386;45.586;12.854;2023-01-29T12:07:41;19.93;;;12.40;;
14599;SDS011;7386;45.586;12.854;2023-01-29T12:12:55;26.47;;;16.60;;
14599;SDS011;7386;45.586;12.854;2023-01-29T12:15:30;37.13;;;22.10;;
14599;SDS011;7386;45.586;12.854;2023-01-29T12:18:02;31.07;;;18.03;;
14599;SDS011;7386;45.586;12.854;2023-01-29T12:20:33;24.10;;;15.27;;
14599;SDS011;7386;45.586;12.854;2023-01-29T12:23:05;21.43;;;13.77;;
14599;SDS011;7386;45.586;12.854;2023-01-29T12:25:43;23.23;;;12.77;;
14599;SDS011;7386;45.586;12.854;2023-01-29T12:28:20;20.00;;;13.00;;
14599;SDS011;7386;45.586;12.854;2023-01-29T12:30:53;21.87;;;13.40;;
14599;SDS011;7386;45.586;12.854;2023-01-29T12:33:24;19.20;;;12.60;;
14599;SDS011;7386;45.586;12.854;2023-01-29T12:35:57;24.90;;;14.57;;
14599;SDS011;7386;45.586;12.854;2023-01-29T12:38:30;25.47;;;15.23;;
14599;SDS011;7386;45.586;12.854;2023-01-29T12:40:59;20.57;;;12.93;;
14599;SDS011;7386;45.586;12.854;2023-01-29T12:43:34;20.40;;;12.03;;
14599;SDS011;7386;45.586;12.854;2023-01-29T12:46:05;18.90;;;12.10;;
14599;SDS011;7386;45.586;12.854;2023-01-29T12:48:36;19.07;;;12.07;;
14599;SDS011;7386;45.586;12.854;2023-01-29T12:51:07;20.67;;;12.33;;
14599;SDS011;7386;45.586;12.854;2023-01-29T12:53:40;17.03;;;10.70;;
14599;SDS011;7386;45.586;12.854;2023-01-29T12:56:10;18.40;;;11.63;;
14599;SDS011;7386;45.586;12.854;2023-01-29T12:58:41;20.73;;;12.30;;
14599;SDS011;7386;45.586;12.854;2023-01-29T13:01:11;19.37;;;11.90;;
14599;SDS011;7386;45.586;12.854;2023-01-29T13:03:45;22.77;;;14.27;;
14599;SDS011;7386;45.586;12.854;2023-01-29T13:06:16;17.53;;;10.93;;
14599;SDS011;7386;45.586;12.854;2023-01-29T13:08:48;20.90;;;12.47;;
14599;SDS011;7386;45.586;12.854;2023-01-29T13:11:20;22.50;;;13.20;;
14599;SDS011;7386;45.586;12.854;2023-01-29T13:13:50;20.30;;;13.23;;
14599;SDS011;7386;45.586;12.854;2023-01-29T13:16:20;22.87;;;13.73;;
14599;SDS011;7386;45.586;12.854;2023-01-29T13:18:50;21.13;;;13.30;;
14599;SDS011;7386;45.586;12.854;2023-01-29T13:21:21;20.37;;;11.70;;
14599;SDS011;7386;45.586;12.854;2023-01-29T13:23:52;21.80;;;12.57;;
14599;SDS011;7386;45.586;12.854;2023-01-29T13:26:22;20.80;;;12.63;;
14599;SDS011;7386;45.586;12.854;2023-01-29T13:28:52;20.60;;;12.67;;
14599;SDS011;7386;45.586;12.854;2023-01-29T13:31:26;18.87;;;12.47;;
14599;SDS011;7386;45.586;12.854;2023-01-29T13:34:03;22.67;;;12.63;;
14599;SDS011;7386;45.586;12.854;2023-01-29T13:36:33;20.83;;;13.03;;
14599;SDS011;7386;45.586;12.854;2023-01-29T13:39:05;19.20;;;12.23;;
14599;SDS011;7386;45.586;12.854;2023-01-29T13:41:35;19.80;;;12.33;;
14599;SDS011;7386;45.586;12.854;2023-01-29T13:44:05;19.23;;;11.80;;
14599;SDS011;7386;45.586;12.854;2023-01-29T13:46:38;16.37;;;9.83;;
14599;SDS011;7386;45.586;12.854;2023-01-29T13:49:15;21.20;;;13.27;;
14599;SDS011;7386;45.586;12.854;2023-01-29T13:51:49;20.57;;;13.03;;
14599;SDS011;7386;45.586;12.854;2023-01-29T13:54:19;19.50;;;12.40;;
14599;SDS011;7386;45.586;12.854;2023-01-29T13:56:57;15.40;;;10.13;;
14599;SDS011;7386;45.586;12.854;2023-01-29T14:02:23;19.53;;;12.17;;
14599;SDS011;7386;45.586;12.854;2023-01-29T14:07:46;20.10;;;11.53;;
14599;SDS011;7386;45.586;12.854;2023-01-29T14:10:18;22.13;;;13.77;;
14599;SDS011;7386;45.586;12.854;2023-01-29T14:12:48;20.40;;;12.73;;
14599;SDS011;7386;45.586;12.854;2023-01-29T14:15:21;19.30;;;12.00;;
14599;SDS011;7386;45.586;12.854;2023-01-29T14:17:56;21.47;;;13.50;;
14599;SDS011;7386;45.586;12.854;2023-01-29T14:20:29;22.47;;;13.47;;
14599;SDS011;7386;45.586;12.854;2023-01-29T14:23:17;20.93;;;13.53;;
14599;SDS011;7386;45.586;12.854;2023-01-29T14:25:49;17.70;;;11.27;;
14599;SDS011;7386;45.586;12.854;2023-01-29T14:28:19;16.03;;;10.60;;
14599;SDS011;7386;45.586;12.854;2023-01-29T14:30:48;19.87;;;12.20;;
14599;SDS011;7386;45.586;12.854;2023-01-29T14:33:22;22.27;;;11.93;;
14599;SDS011;7386;45.586;12.854;2023-01-29T14:35:51;21.03;;;12.57;;
14599;SDS011;7386;45.586;12.854;2023-01-29T14:38:21;20.43;;;12.57;;
14599;SDS011;7386;45.586;12.854;2023-01-29T14:40:52;22.57;;;13.90;;
14599;SDS011;7386;45.586;12.854;2023-01-29T14:43:29;19.90;;;11.97;;
14599;SDS011;7386;45.586;12.854;2023-01-29T14:46:34;18.40;;;11.00;;
14599;SDS011;7386;45.586;12.854;2023-01-29T14:48:55;19.47;;;11.87;;
14599;SDS011;7386;45.586;12.854;2023-01-29T14:51:23;22.23;;;13.13;;
14599;SDS011;7386;45.586;12.854;2023-01-29T14:53:55;18.13;;;11.40;;
14599;SDS011;7386;45.586;12.854;2023-01-29T14:56:27;21.77;;;12.63;;
14599;SDS011;7386;45.586;12.854;2023-01-29T14:58:59;18.50;;;12.00;;
14599;SDS011;7386;45.586;12.854;2023-01-29T15:01:33;18.57;;;12.57;;